sensor_id;sensor_type;location;lat;lon;timestamp;P1;durP1;ratioP1;P2;durP2;ratioP2
76582;SDS011;65462;52.148;7.940;2023-03-25T00:00:57;3.10;;;1.60;;
76582;SDS011;65462;52.148;7.940;2023-03-25T00:03:27;2.77;;;1.63;;
76582;SDS011;65462;52.148;7.940;2023-03-25T00:05:55;6.33;;;1.80;;
76582;SDS011;65462;52.148;7.940;2023-03-25T00:08:24;4.77;;;2.00;;
76582;SDS011;65462;52.148;7.940;2023-03-25T00:10:51;4.43;;;2.00;;
76582;SDS011;65462;52.148;7.940;2023-03-25T00:13:18;5.70;;;2.10;;
76582;SDS011;65462;52.148;7.940;2023-03-25T00:15:43;5.37;;;1.67;;
76582;SDS011;65462;52.148;7.940;2023-03-25T00:18:09;3.17;;;1.50;;
76582;SDS011;65462;52.148;7.940;2023-03-25T00:20:35;2.43;;;1.23;;
76582;SDS011;65462;52.148;7.940;2023-03-25T00:23:00;3.47;;;1.00;;
76582;SDS011;65462;52.148;7.940;2023-03-25T00:25:25;3.33;;;1.60;;
76582;SDS011;65462;52.148;7.940;2023-03-25T00:27:50;2.50;;;0.97;;
76582;SDS011;65462;52.148;7.940;2023-03-25T00:30:16;2.17;;;0.97;;
76582;SDS011;65462;52.148;7.940;2023-03-25T00:32:43;3.23;;;0.97;;
76582;SDS011;65462;52.148;7.940;2023-03-25T00:35:20;5.80;;;1.10;;
76582;SDS011;65462;52.148;7.940;2023-03-25T00:37:46;2.03;;;1.07;;
76582;SDS011;65462;52.148;7.940;2023-03-25T00:40:21;3.43;;;1.00;;
76582;SDS011;65462;52.148;7.940;2023-03-25T00:42:47;3.27;;;1.40;;
76582;SDS011;65462;52.148;7.940;2023-03-25T00:45:14;3.60;;;1.17;;
76582;SDS011;65462;52.148;7.940;2023-03-25T00:47:40;2.57;;;1.30;;
76582;SDS011;65462;52.148;7.940;2023-03-25T00:50:05;6.23;;;1.80;;
76582;SDS011;65462;52.148;7.940;2023-03-25T00:52:31;4.50;;;1.77;;
76582;SDS011;65462;52.148;7.940;2023-03-25T00:54:56;4.27;;;1.93;;
76582;SDS011;65462;52.148;7.940;2023-03-25T00:57:21;6.77;;;1.97;;
76582;SDS011;65462;52.148;7.940;2023-03-25T00:59:47;2.97;;;1.57;;
76582;SDS011;65462;52.148;7.940;2023-03-25T01:02:12;4.60;;;1.43;;
76582;SDS011;65462;52.148;7.940;2023-03-25T01:04:38;4.57;;;1.47;;
76582;SDS011;65462;52.148;7.940;2023-03-25T01:07:03;2.27;;;1.43;;
76582;SDS011;65462;52.148;7.940;2023-03-25T01:09:29;4.70;;;1.40;;
76582;SDS011;65462;52.148;7.940;2023-03-25T01:11:55;2.97;;;1.37;;
76582;SDS011;65462;52.148;7.940;2023-03-25T01:14:20;4.57;;;1.33;;
76582;SDS011;65462;52.148;7.940;2023-03-25T01:16:48;3.67;;;1.40;;
76582;SDS011;65462;52.148;7.940;2023-03-25T01:19:13;4.77;;;1.37;;
76582;SDS011;65462;52.148;7.940;2023-03-25T01:21:38;4.43;;;1.20;;
76582;SDS011;65462;52.148;7.940;2023-03-25T01:24:05;5.77;;;1.13;;
76582;SDS011;65462;52.148;7.940;2023-03-25T01:26:32;4.73;;;1.10;;
76582;SDS011;65462;52.148;7.940;2023-03-25T01:28:57;3.67;;;1.30;;
76582;SDS011;65462;52.148;7.940;2023-03-25T01:31:23;3.93;;;1.10;;
76582;SDS011;65462;52.148;7.940;2023-03-25T01:33:54;3.03;;;1.00;;
76582;SDS011;65462;52.148;7.940;2023-03-25T01:36:21;5.27;;;1.07;;
76582;SDS011;65462;52.148;7.940;2023-03-25T01:38:48;5.40;;;1.00;;
76582;SDS011;65462;52.148;7.940;2023-03-25T01:41:14;3.53;;;1.00;;
76582;SDS011;65462;52.148;7.940;2023-03-25T01:43:40;5.20;;;1.03;;
76582;SDS011;65462;52.148;7.940;2023-03-25T01:46:06;3.00;;;1.00;;
76582;SDS011;65462;52.148;7.940;2023-03-25T01:48:38;2.50;;;0.93;;
76582;SDS011;65462;52.148;7.940;2023-03-25T01:53:38;4.97;;;1.10;;
76582;SDS011;65462;52.148;7.940;2023-03-25T01:56:04;2.27;;;0.80;;
76582;SDS011;65462;52.148;7.940;2023-03-25T01:58:30;3.20;;;0.80;;
76582;SDS011;65462;52.148;7.940;2023-03-25T02:00:58;3.53;;;0.90;;
76582;SDS011;65462;52.148;7.940;2023-03-25T02:03:25;5.10;;;1.10;;
76582;SDS011;65462;52.148;7.940;2023-03-25T02:06:02;6.60;;;1.50;;
76582;SDS011;65462;52.148;7.940;2023-03-25T02:08:31;2.10;;;0.70;;
76582;SDS011;65462;52.148;7.940;2023-03-25T02:11:02;5.37;;;1.00;;
76582;SDS011;65462;52.148;7.940;2023-03-25T02:13:27;4.37;;;0.73;;
76582;SDS011;65462;52.148;7.940;2023-03-25T02:22:20;7.10;;;1.03;;
76582;SDS011;65462;52.148;7.940;2023-03-25T02:24:59;4.03;;;0.70;;
76582;SDS011;65462;52.148;7.940;2023-03-25T02:30:47;7.20;;;0.70;;
76582;SDS011;65462;52.148;7.940;2023-03-25T02:36:36;4.97;;;0.90;;
76582;SDS011;65462;52.148;7.940;2023-03-25T02:44:35;6.37;;;1.00;;
76582;SDS011;65462;52.148;7.940;2023-03-25T02:47:05;5.07;;;1.20;;
76582;SDS011;65462;52.148;7.940;2023-03-25T02:49:37;6.50;;;1.27;;
76582;SDS011;65462;52.148;7.940;2023-03-25T02:54:32;3.50;;;1.10;;
76582;SDS011;65462;52.148;7.940;2023-03-25T02:57:01;6.60;;;1.33;;
76582;SDS011;65462;52.148;7.940;2023-03-25T02:59:28;6.80;;;1.20;;
76582;SDS011;65462;52.148;7.940;2023-03-25T03:01:57;4.83;;;1.00;;
76582;SDS011;65462;52.148;7.940;2023-03-25T03:04:24;6.90;;;1.20;;
76582;SDS011;65462;52.148;7.940;2023-03-25T03:06:50;3.43;;;1.07;;
76582;SDS011;65462;52.148;7.940;2023-03-25T03:09:20;9.80;;;1.33;;
76582;SDS011;65462;52.148;7.940;2023-03-25T03:12:06;3.30;;;1.25;;
76582;SDS011;65462;52.148;7.940;2023-03-25T03:14:52;3.90;;;1.47;;
76582;SDS011;65462;52.148;7.940;2023-03-25T03:22:44;3.13;;;0.93;;
76582;SDS011;65462;52.148;7.940;2023-03-25T03:25:21;4.17;;;0.97;;
76582;SDS011;65462;52.148;7.940;2023-03-25T03:35:59;1.63;;;0.52;;
76582;SDS011;65462;52.148;7.940;2023-03-25T03:38:31;3.43;;;0.90;;
76582;SDS011;65462;52.148;7.940;2023-03-25T03:41:04;3.37;;;0.97;;
76582;SDS011;65462;52.148;7.940;2023-03-25T03:43:40;2.57;;;0.93;;
76582;SDS011;65462;52.148;7.940;2023-03-25T03:46:09;2.63;;;1.02;;
76582;SDS011;65462;52.148;7.940;2023-03-25T03:48:44;4.87;;;0.97;;
76582;SDS011;65462;52.148;7.940;2023-03-25T03:51:21;4.53;;;1.17;;
76582;SDS011;65462;52.148;7.940;2023-03-25T03:53:55;4.10;;;0.73;;
76582;SDS011;65462;52.148;7.940;2023-03-25T03:56:29;4.57;;;1.37;;
76582;SDS011;65462;52.148;7.940;2023-03-25T03:59:01;2.80;;;1.20;;
76582;SDS011;65462;52.148;7.940;2023-03-25T04:01:43;3.73;;;1.40;;
76582;SDS011;65462;52.148;7.940;2023-03-25T04:04:12;6.37;;;2.20;;
76582;SDS011;65462;52.148;7.940;2023-03-25T04:06:46;4.63;;;2.10;;
76582;SDS011;65462;52.148;7.940;2023-03-25T04:09:50;5.78;;;2.30;;
76582;SDS011;65462;52.148;7.940;2023-03-25T04:12:26;4.93;;;2.10;;
76582;SDS011;65462;52.148;7.940;2023-03-25T04:14:54;8.17;;;2.50;;
76582;SDS011;65462;52.148;7.940;2023-03-25T04:17:21;7.40;;;2.43;;
76582;SDS011;65462;52.148;7.940;2023-03-25T04:19:46;7.13;;;2.53;;
76582;SDS011;65462;52.148;7.940;2023-03-25T04:22:12;5.23;;;2.37;;
76582;SDS011;65462;52.148;7.940;2023-03-25T04:24:41;7.20;;;2.37;;
76582;SDS011;65462;52.148;7.940;2023-03-25T04:27:08;5.83;;;2.00;;
76582;SDS011;65462;52.148;7.940;2023-03-25T04:29:33;3.37;;;2.10;;
76582;SDS011;65462;52.148;7.940;2023-03-25T04:31:59;4.97;;;1.83;;
76582;SDS011;65462;52.148;7.940;2023-03-25T04:34:25;4.30;;;2.10;;
76582;SDS011;65462;52.148;7.940;2023-03-25T04:36:51;5.23;;;2.07;;
76582;SDS011;65462;52.148;7.940;2023-03-25T04:39:17;5.33;;;1.53;;
76582;SDS011;65462;52.148;7.940;2023-03-25T04:41:46;5.73;;;1.60;;
76582;SDS011;65462;52.148;7.940;2023-03-25T04:44:12;3.23;;;1.40;;
76582;SDS011;65462;52.148;7.940;2023-03-25T04:46:37;3.83;;;1.60;;
76582;SDS011;65462;52.148;7.940;2023-03-25T04:49:03;3.57;;;1.20;;
76582;SDS011;65462;52.148;7.940;2023-03-25T04:51:38;3.10;;;1.40;;
76582;SDS011;65462;52.148;7.940;2023-03-25T04:54:06;3.37;;;1.50;;
76582;SDS011;65462;52.148;7.940;2023-03-25T04:56:31;6.33;;;1.40;;
76582;SDS011;65462;52.148;7.940;2023-03-25T04:58:57;4.90;;;1.10;;
76582;SDS011;65462;52.148;7.940;2023-03-25T05:01:23;3.60;;;1.00;;
76582;SDS011;65462;52.148;7.940;2023-03-25T05:03:57;4.05;;;0.95;;
76582;SDS011;65462;52.148;7.940;2023-03-25T05:06:33;2.90;;;1.30;;
76582;SDS011;65462;52.148;7.940;2023-03-25T05:08:59;2.17;;;0.83;;
76582;SDS011;65462;52.148;7.940;2023-03-25T05:11:27;3.50;;;1.10;;
76582;SDS011;65462;52.148;7.940;2023-03-25T05:13:53;3.67;;;0.97;;
76582;SDS011;65462;52.148;7.940;2023-03-25T05:16:19;5.50;;;1.13;;
76582;SDS011;65462;52.148;7.940;2023-03-25T05:18:44;7.87;;;1.17;;
76582;SDS011;65462;52.148;7.940;2023-03-25T05:21:09;3.20;;;1.13;;
76582;SDS011;65462;52.148;7.940;2023-03-25T05:23:35;6.20;;;1.00;;
76582;SDS011;65462;52.148;7.940;2023-03-25T05:26:00;2.73;;;1.10;;
76582;SDS011;65462;52.148;7.940;2023-03-25T05:28:26;5.80;;;1.37;;
76582;SDS011;65462;52.148;7.940;2023-03-25T05:30:51;3.03;;;1.40;;
76582;SDS011;65462;52.148;7.940;2023-03-25T05:33:17;3.60;;;1.50;;
76582;SDS011;65462;52.148;7.940;2023-03-25T05:35:43;7.30;;;1.30;;
76582;SDS011;65462;52.148;7.940;2023-03-25T05:38:09;7.27;;;1.67;;
76582;SDS011;65462;52.148;7.940;2023-03-25T05:40:38;3.83;;;1.30;;
76582;SDS011;65462;52.148;7.940;2023-03-25T05:43:04;4.27;;;1.50;;
76582;SDS011;65462;52.148;7.940;2023-03-25T05:45:30;5.23;;;1.30;;
76582;SDS011;65462;52.148;7.940;2023-03-25T05:47:56;3.40;;;1.40;;
76582;SDS011;65462;52.148;7.940;2023-03-25T05:50:23;7.80;;;1.80;;
76582;SDS011;65462;52.148;7.940;2023-03-25T05:52:48;3.30;;;1.57;;
76582;SDS011;65462;52.148;7.940;2023-03-25T05:55:16;3.40;;;1.67;;
76582;SDS011;65462;52.148;7.940;2023-03-25T05:57:43;5.27;;;1.33;;
76582;SDS011;65462;52.148;7.940;2023-03-25T06:00:09;5.33;;;1.50;;
76582;SDS011;65462;52.148;7.940;2023-03-25T06:02:36;3.97;;;1.30;;
76582;SDS011;65462;52.148;7.940;2023-03-25T06:05:03;3.83;;;1.20;;
76582;SDS011;65462;52.148;7.940;2023-03-25T06:07:29;4.03;;;1.50;;
76582;SDS011;65462;52.148;7.940;2023-03-25T06:09:55;5.63;;;1.50;;
76582;SDS011;65462;52.148;7.940;2023-03-25T06:12:21;3.50;;;1.33;;
76582;SDS011;65462;52.148;7.940;2023-03-25T06:14:47;4.53;;;1.40;;
76582;SDS011;65462;52.148;7.940;2023-03-25T06:17:18;4.87;;;1.57;;
76582;SDS011;65462;52.148;7.940;2023-03-25T06:19:46;4.70;;;1.47;;
76582;SDS011;65462;52.148;7.940;2023-03-25T06:22:11;4.73;;;1.50;;
76582;SDS011;65462;52.148;7.940;2023-03-25T06:24:37;6.73;;;1.37;;
76582;SDS011;65462;52.148;7.940;2023-03-25T06:27:04;5.77;;;1.47;;
76582;SDS011;65462;52.148;7.940;2023-03-25T06:29:31;4.93;;;1.43;;
76582;SDS011;65462;52.148;7.940;2023-03-25T06:31:58;5.67;;;1.90;;
76582;SDS011;65462;52.148;7.940;2023-03-25T06:34:23;4.43;;;1.50;;
76582;SDS011;65462;52.148;7.940;2023-03-25T06:36:48;6.17;;;2.00;;
76582;SDS011;65462;52.148;7.940;2023-03-25T06:39:13;4.63;;;2.20;;
76582;SDS011;65462;52.148;7.940;2023-03-25T06:41:39;7.53;;;2.73;;
76582;SDS011;65462;52.148;7.940;2023-03-25T06:44:05;5.03;;;2.30;;
76582;SDS011;65462;52.148;7.940;2023-03-25T06:46:30;9.40;;;2.83;;
76582;SDS011;65462;52.148;7.940;2023-03-25T06:48:55;7.60;;;2.70;;
76582;SDS011;65462;52.148;7.940;2023-03-25T06:51:20;6.17;;;3.20;;
76582;SDS011;65462;52.148;7.940;2023-03-25T06:53:47;8.77;;;2.93;;
76582;SDS011;65462;52.148;7.940;2023-03-25T06:56:13;5.63;;;2.60;;
76582;SDS011;65462;52.148;7.940;2023-03-25T06:58:38;4.03;;;2.33;;
76582;SDS011;65462;52.148;7.940;2023-03-25T07:01:05;4.60;;;2.50;;
76582;SDS011;65462;52.148;7.940;2023-03-25T07:03:31;4.60;;;2.00;;
76582;SDS011;65462;52.148;7.940;2023-03-25T07:05:57;4.27;;;2.00;;
76582;SDS011;65462;52.148;7.940;2023-03-25T07:08:22;5.47;;;1.80;;
76582;SDS011;65462;52.148;7.940;2023-03-25T07:10:49;3.70;;;1.60;;
76582;SDS011;65462;52.148;7.940;2023-03-25T07:13:14;1.93;;;1.37;;
76582;SDS011;65462;52.148;7.940;2023-03-25T07:15:40;4.73;;;1.50;;
76582;SDS011;65462;52.148;7.940;2023-03-25T07:18:06;4.03;;;1.70;;
76582;SDS011;65462;52.148;7.940;2023-03-25T07:20:31;4.83;;;1.50;;
76582;SDS011;65462;52.148;7.940;2023-03-25T07:22:56;4.40;;;1.50;;
76582;SDS011;65462;52.148;7.940;2023-03-25T07:25:21;5.00;;;1.57;;
76582;SDS011;65462;52.148;7.940;2023-03-25T07:27:47;4.47;;;1.40;;
76582;SDS011;65462;52.148;7.940;2023-03-25T07:30:12;9.63;;;1.53;;
76582;SDS011;65462;52.148;7.940;2023-03-25T07:32:38;2.90;;;1.00;;
76582;SDS011;65462;52.148;7.940;2023-03-25T07:35:03;3.10;;;1.10;;
76582;SDS011;65462;52.148;7.940;2023-03-25T07:37:30;5.97;;;1.17;;
76582;SDS011;65462;52.148;7.940;2023-03-25T07:39:55;5.70;;;1.07;;
76582;SDS011;65462;52.148;7.940;2023-03-25T07:42:20;4.37;;;1.23;;
76582;SDS011;65462;52.148;7.940;2023-03-25T07:44:46;5.47;;;2.57;;
76582;SDS011;65462;52.148;7.940;2023-03-25T07:47:11;6.60;;;1.40;;
76582;SDS011;65462;52.148;7.940;2023-03-25T07:49:36;3.93;;;1.37;;
76582;SDS011;65462;52.148;7.940;2023-03-25T07:52:05;2.97;;;1.20;;
76582;SDS011;65462;52.148;7.940;2023-03-25T07:54:30;5.03;;;1.20;;
76582;SDS011;65462;52.148;7.940;2023-03-25T07:56:56;7.10;;;2.07;;
76582;SDS011;65462;52.148;7.940;2023-03-25T07:59:21;3.30;;;1.30;;
76582;SDS011;65462;52.148;7.940;2023-03-25T08:01:46;5.03;;;1.80;;
76582;SDS011;65462;52.148;7.940;2023-03-25T08:04:12;4.87;;;1.70;;
76582;SDS011;65462;52.148;7.940;2023-03-25T08:06:37;4.77;;;1.70;;
76582;SDS011;65462;52.148;7.940;2023-03-25T08:09:03;3.23;;;1.30;;
76582;SDS011;65462;52.148;7.940;2023-03-25T08:11:28;8.60;;;1.63;;
76582;SDS011;65462;52.148;7.940;2023-03-25T08:13:54;5.10;;;1.37;;
76582;SDS011;65462;52.148;7.940;2023-03-25T08:16:19;4.57;;;1.20;;
76582;SDS011;65462;52.148;7.940;2023-03-25T08:18:45;5.70;;;0.97;;
76582;SDS011;65462;52.148;7.940;2023-03-25T08:21:10;6.50;;;1.30;;
76582;SDS011;65462;52.148;7.940;2023-03-25T08:23:36;4.53;;;1.10;;
76582;SDS011;65462;52.148;7.940;2023-03-25T08:26:02;3.80;;;1.00;;
76582;SDS011;65462;52.148;7.940;2023-03-25T08:28:29;3.90;;;1.17;;
76582;SDS011;65462;52.148;7.940;2023-03-25T08:30:54;3.03;;;1.27;;
76582;SDS011;65462;52.148;7.940;2023-03-25T08:33:20;4.30;;;1.10;;
76582;SDS011;65462;52.148;7.940;2023-03-25T08:35:50;3.85;;;1.30;;
76582;SDS011;65462;52.148;7.940;2023-03-25T08:38:16;5.75;;;1.45;;
76582;SDS011;65462;52.148;7.940;2023-03-25T08:40:41;4.47;;;1.38;;
76582;SDS011;65462;52.148;7.940;2023-03-25T08:43:07;4.57;;;1.27;;
76582;SDS011;65462;52.148;7.940;2023-03-25T08:45:33;5.63;;;1.15;;
76582;SDS011;65462;52.148;7.940;2023-03-25T08:47:59;2.45;;;0.90;;
76582;SDS011;65462;52.148;7.940;2023-03-25T08:50:25;4.93;;;1.20;;
76582;SDS011;65462;52.148;7.940;2023-03-25T08:52:51;5.43;;;1.52;;
76582;SDS011;65462;52.148;7.940;2023-03-25T08:55:18;7.85;;;1.40;;
76582;SDS011;65462;52.148;7.940;2023-03-25T08:57:43;4.72;;;1.20;;
76582;SDS011;65462;52.148;7.940;2023-03-25T09:00:09;4.88;;;1.60;;
76582;SDS011;65462;52.148;7.940;2023-03-25T09:02:39;5.95;;;1.23;;
76582;SDS011;65462;52.148;7.940;2023-03-25T09:05:06;4.55;;;1.35;;
76582;SDS011;65462;52.148;7.940;2023-03-25T09:07:32;3.55;;;1.17;;
76582;SDS011;65462;52.148;7.940;2023-03-25T09:09:57;6.65;;;1.50;;
76582;SDS011;65462;52.148;7.940;2023-03-25T09:12:23;5.03;;;1.20;;
76582;SDS011;65462;52.148;7.940;2023-03-25T09:14:48;5.63;;;1.52;;
76582;SDS011;65462;52.148;7.940;2023-03-25T09:17:13;3.15;;;1.30;;
76582;SDS011;65462;52.148;7.940;2023-03-25T09:19:38;5.88;;;1.23;;
76582;SDS011;65462;52.148;7.940;2023-03-25T09:22:04;4.85;;;1.25;;
76582;SDS011;65462;52.148;7.940;2023-03-25T09:24:30;6.28;;;1.30;;
76582;SDS011;65462;52.148;7.940;2023-03-25T09:26:58;5.10;;;1.20;;
76582;SDS011;65462;52.148;7.940;2023-03-25T09:29:24;10.35;;;1.50;;
76582;SDS011;65462;52.148;7.940;2023-03-25T09:31:50;4.70;;;1.15;;
76582;SDS011;65462;52.148;7.940;2023-03-25T09:34:15;9.60;;;1.40;;
76582;SDS011;65462;52.148;7.940;2023-03-25T09:36:40;5.22;;;1.27;;
76582;SDS011;65462;52.148;7.940;2023-03-25T09:39:06;5.70;;;1.40;;
76582;SDS011;65462;52.148;7.940;2023-03-25T09:44:29;5.20;;;1.40;;
76582;SDS011;65462;52.148;7.940;2023-03-25T09:46:58;5.22;;;1.15;;
76582;SDS011;65462;52.148;7.940;2023-03-25T09:49:30;4.95;;;2.17;;
76582;SDS011;65462;52.148;7.940;2023-03-25T09:52:02;4.00;;;1.20;;
76582;SDS011;65462;52.148;7.940;2023-03-25T09:54:32;4.28;;;1.15;;
76582;SDS011;65462;52.148;7.940;2023-03-25T09:57:03;6.23;;;1.50;;
76582;SDS011;65462;52.148;7.940;2023-03-25T09:59:37;5.30;;;0.88;;
76582;SDS011;65462;52.148;7.940;2023-03-25T10:05:02;5.95;;;1.30;;
76582;SDS011;65462;52.148;7.940;2023-03-25T10:13:24;4.53;;;1.27;;
76582;SDS011;65462;52.148;7.940;2023-03-25T10:18:58;10.88;;;1.80;;
76582;SDS011;65462;52.148;7.940;2023-03-25T10:21:40;7.43;;;1.02;;
76582;SDS011;65462;52.148;7.940;2023-03-25T10:24:29;5.73;;;1.60;;
76582;SDS011;65462;52.148;7.940;2023-03-25T10:27:01;5.73;;;1.37;;
76582;SDS011;65462;52.148;7.940;2023-03-25T10:29:35;10.05;;;1.60;;
76582;SDS011;65462;52.148;7.940;2023-03-25T10:32:06;3.72;;;1.30;;
76582;SDS011;65462;52.148;7.940;2023-03-25T10:34:39;5.90;;;1.45;;
76582;SDS011;65462;52.148;7.940;2023-03-25T10:37:14;5.63;;;1.45;;
76582;SDS011;65462;52.148;7.940;2023-03-25T10:39:45;7.45;;;1.27;;
76582;SDS011;65462;52.148;7.940;2023-03-25T10:45:00;6.38;;;1.52;;
76582;SDS011;65462;52.148;7.940;2023-03-25T10:47:27;6.60;;;1.42;;
76582;SDS011;65462;52.148;7.940;2023-03-25T10:49:55;6.20;;;1.20;;
76582;SDS011;65462;52.148;7.940;2023-03-25T10:52:21;7.10;;;1.08;;
76582;SDS011;65462;52.148;7.940;2023-03-25T10:54:48;5.18;;;1.55;;
76582;SDS011;65462;52.148;7.940;2023-03-25T10:57:27;3.38;;;0.82;;
76582;SDS011;65462;52.148;7.940;2023-03-25T11:02:36;4.50;;;1.10;;
76582;SDS011;65462;52.148;7.940;2023-03-25T11:05:03;5.97;;;1.42;;
76582;SDS011;65462;52.148;7.940;2023-03-25T11:07:34;10.32;;;1.40;;
76582;SDS011;65462;52.148;7.940;2023-03-25T11:12:38;4.95;;;1.65;;
76582;SDS011;65462;52.148;7.940;2023-03-25T11:15:04;3.85;;;1.38;;
76582;SDS011;65462;52.148;7.940;2023-03-25T11:17:29;6.57;;;1.45;;
76582;SDS011;65462;52.148;7.940;2023-03-25T11:20:00;6.97;;;1.65;;
76582;SDS011;65462;52.148;7.940;2023-03-25T11:22:35;6.65;;;1.52;;
76582;SDS011;65462;52.148;7.940;2023-03-25T11:27:46;4.55;;;1.40;;
76582;SDS011;65462;52.148;7.940;2023-03-25T11:30:17;4.53;;;1.08;;
76582;SDS011;65462;52.148;7.940;2023-03-25T11:32:43;6.07;;;1.23;;
76582;SDS011;65462;52.148;7.940;2023-03-25T11:35:22;5.28;;;1.50;;
76582;SDS011;65462;52.148;7.940;2023-03-25T11:37:57;6.10;;;1.33;;
76582;SDS011;65462;52.148;7.940;2023-03-25T11:40:24;3.95;;;1.15;;
76582;SDS011;65462;52.148;7.940;2023-03-25T11:42:52;6.90;;;1.55;;
76582;SDS011;65462;52.148;7.940;2023-03-25T11:45:32;6.80;;;1.10;;
76582;SDS011;65462;52.148;7.940;2023-03-25T11:48:00;8.38;;;1.30;;
76582;SDS011;65462;52.148;7.940;2023-03-25T11:50:34;4.53;;;1.13;;
76582;SDS011;65462;52.148;7.940;2023-03-25T11:53:00;9.35;;;1.20;;
76582;SDS011;65462;52.148;7.940;2023-03-25T11:55:27;6.20;;;1.10;;
76582;SDS011;65462;52.148;7.940;2023-03-25T11:57:56;5.20;;;1.63;;
76582;SDS011;65462;52.148;7.940;2023-03-25T12:03:35;8.23;;;1.50;;
76582;SDS011;65462;52.148;7.940;2023-03-25T12:05:35;7.85;;;1.38;;
76582;SDS011;65462;52.148;7.940;2023-03-25T12:08:22;8.40;;;1.95;;
76582;SDS011;65462;52.148;7.940;2023-03-25T12:18:56;4.97;;;1.00;;
76582;SDS011;65462;52.148;7.940;2023-03-25T12:26:20;2.53;;;0.70;;
76582;SDS011;65462;52.148;7.940;2023-03-25T12:31:58;7.77;;;1.30;;
76582;SDS011;65462;52.148;7.940;2023-03-25T12:40:30;7.30;;;1.13;;
76582;SDS011;65462;52.148;7.940;2023-03-25T12:43:02;4.57;;;1.13;;
76582;SDS011;65462;52.148;7.940;2023-03-25T12:48:01;4.05;;;1.20;;
76582;SDS011;65462;52.148;7.940;2023-03-25T13:04:00;7.25;;;1.17;;
76582;SDS011;65462;52.148;7.940;2023-03-25T13:06:44;7.65;;;1.35;;
76582;SDS011;65462;52.148;7.940;2023-03-25T13:09:24;4.43;;;1.10;;
76582;SDS011;65462;52.148;7.940;2023-03-25T13:12:08;8.80;;;1.70;;
76582;SDS011;65462;52.148;7.940;2023-03-25T13:14:36;5.68;;;1.30;;
76582;SDS011;65462;52.148;7.940;2023-03-25T13:17:11;8.73;;;1.92;;
76582;SDS011;65462;52.148;7.940;2023-03-25T13:19:45;9.23;;;1.60;;
76582;SDS011;65462;52.148;7.940;2023-03-25T13:22:18;5.93;;;1.60;;
76582;SDS011;65462;52.148;7.940;2023-03-25T13:24:54;6.32;;;1.63;;
76582;SDS011;65462;52.148;7.940;2023-03-25T13:27:23;6.60;;;1.90;;
76582;SDS011;65462;52.148;7.940;2023-03-25T13:29:50;6.57;;;1.85;;
76582;SDS011;65462;52.148;7.940;2023-03-25T13:32:31;5.65;;;1.60;;
76582;SDS011;65462;52.148;7.940;2023-03-25T13:35:04;7.10;;;1.48;;
76582;SDS011;65462;52.148;7.940;2023-03-25T13:37:39;5.93;;;1.98;;
76582;SDS011;65462;52.148;7.940;2023-03-25T13:45:30;6.45;;;1.60;;
76582;SDS011;65462;52.148;7.940;2023-03-25T13:48:18;7.47;;;1.60;;
76582;SDS011;65462;52.148;7.940;2023-03-25T13:50:47;7.25;;;1.77;;
76582;SDS011;65462;52.148;7.940;2023-03-25T13:55:47;9.48;;;1.42;;
76582;SDS011;65462;52.148;7.940;2023-03-25T13:58:44;5.60;;;1.40;;
76582;SDS011;65462;52.148;7.940;2023-03-25T14:14:39;3.83;;;0.90;;
76582;SDS011;65462;52.148;7.940;2023-03-25T14:17:10;6.60;;;1.20;;
76582;SDS011;65462;52.148;7.940;2023-03-25T14:19:40;3.25;;;1.00;;
76582;SDS011;65462;52.148;7.940;2023-03-25T14:22:13;4.35;;;1.10;;
76582;SDS011;65462;52.148;7.940;2023-03-25T14:24:42;6.35;;;0.95;;
76582;SDS011;65462;52.148;7.940;2023-03-25T14:29:59;4.88;;;1.42;;
76582;SDS011;65462;52.148;7.940;2023-03-25T14:32:35;7.90;;;1.45;;
76582;SDS011;65462;52.148;7.940;2023-03-25T14:43:16;4.13;;;1.27;;
76582;SDS011;65462;52.148;7.940;2023-03-25T14:46:00;5.40;;;1.17;;
76582;SDS011;65462;52.148;7.940;2023-03-25T14:48:34;4.70;;;1.30;;
76582;SDS011;65462;52.148;7.940;2023-03-25T14:54:15;4.72;;;1.13;;
76582;SDS011;65462;52.148;7.940;2023-03-25T14:59:50;4.63;;;1.30;;
76582;SDS011;65462;52.148;7.940;2023-03-25T15:02:23;3.10;;;1.00;;
76582;SDS011;65462;52.148;7.940;2023-03-25T15:04:53;6.82;;;0.75;;
76582;SDS011;65462;52.148;7.940;2023-03-25T15:07:43;4.50;;;1.00;;
76582;SDS011;65462;52.148;7.940;2023-03-25T15:10:24;5.18;;;0.82;;
76582;SDS011;65462;52.148;7.940;2023-03-25T15:13:03;2.13;;;0.60;;
76582;SDS011;65462;52.148;7.940;2023-03-25T15:18:12;2.45;;;0.70;;
76582;SDS011;65462;52.148;7.940;2023-03-25T15:26:09;4.30;;;0.70;;
76582;SDS011;65462;52.148;7.940;2023-03-25T15:28:41;3.00;;;0.83;;
76582;SDS011;65462;52.148;7.940;2023-03-25T15:31:19;2.58;;;0.80;;
76582;SDS011;65462;52.148;7.940;2023-03-25T15:33:55;3.87;;;0.70;;
76582;SDS011;65462;52.148;7.940;2023-03-25T15:36:32;1.65;;;0.60;;
76582;SDS011;65462;52.148;7.940;2023-03-25T15:39:15;7.13;;;1.08;;
76582;SDS011;65462;52.148;7.940;2023-03-25T15:47:21;7.45;;;1.40;;
76582;SDS011;65462;52.148;7.940;2023-03-25T15:50:19;6.85;;;1.13;;
76582;SDS011;65462;52.148;7.940;2023-03-25T15:55:47;7.03;;;1.50;;
76582;SDS011;65462;52.148;7.940;2023-03-25T16:01:19;4.20;;;0.90;;
76582;SDS011;65462;52.148;7.940;2023-03-25T16:06:25;6.70;;;1.17;;
76582;SDS011;65462;52.148;7.940;2023-03-25T16:08:52;8.10;;;1.17;;
76582;SDS011;65462;52.148;7.940;2023-03-25T16:13:46;6.50;;;1.35;;
76582;SDS011;65462;52.148;7.940;2023-03-25T16:16:24;5.22;;;0.85;;
76582;SDS011;65462;52.148;7.940;2023-03-25T16:18:50;4.70;;;1.23;;
76582;SDS011;65462;52.148;7.940;2023-03-25T16:21:18;4.20;;;1.30;;
76582;SDS011;65462;52.148;7.940;2023-03-25T16:23:43;3.63;;;0.68;;
76582;SDS011;65462;52.148;7.940;2023-03-25T16:26:10;5.47;;;0.87;;
76582;SDS011;65462;52.148;7.940;2023-03-25T16:28:40;3.70;;;0.70;;
76582;SDS011;65462;52.148;7.940;2023-03-25T16:31:26;3.33;;;0.70;;
76582;SDS011;65462;52.148;7.940;2023-03-25T16:33:57;2.70;;;0.50;;
76582;SDS011;65462;52.148;7.940;2023-03-25T16:36:24;4.23;;;0.67;;
76582;SDS011;65462;52.148;7.940;2023-03-25T16:38:50;2.17;;;0.67;;
76582;SDS011;65462;52.148;7.940;2023-03-25T16:41:15;2.87;;;0.63;;
76582;SDS011;65462;52.148;7.940;2023-03-25T16:43:41;1.43;;;0.53;;
76582;SDS011;65462;52.148;7.940;2023-03-25T16:46:07;3.73;;;0.50;;
76582;SDS011;65462;52.148;7.940;2023-03-25T16:48:35;2.33;;;0.50;;
76582;SDS011;65462;52.148;7.940;2023-03-25T16:51:13;3.40;;;0.70;;
76582;SDS011;65462;52.148;7.940;2023-03-25T16:53:41;2.03;;;0.50;;
76582;SDS011;65462;52.148;7.940;2023-03-25T16:58:33;3.67;;;0.60;;
76582;SDS011;65462;52.148;7.940;2023-03-25T17:01:01;1.77;;;0.47;;
76582;SDS011;65462;52.148;7.940;2023-03-25T17:03:41;3.50;;;0.60;;
76582;SDS011;65462;52.148;7.940;2023-03-25T17:08:55;3.87;;;0.80;;
76582;SDS011;65462;52.148;7.940;2023-03-25T17:11:23;6.30;;;1.03;;
76582;SDS011;65462;52.148;7.940;2023-03-25T17:13:57;4.10;;;0.53;;
76582;SDS011;65462;52.148;7.940;2023-03-25T17:16:39;1.97;;;0.43;;
76582;SDS011;65462;52.148;7.940;2023-03-25T17:19:05;3.50;;;0.63;;
76582;SDS011;65462;52.148;7.940;2023-03-25T17:21:32;1.50;;;0.40;;
76582;SDS011;65462;52.148;7.940;2023-03-25T17:23:59;3.57;;;0.60;;
76582;SDS011;65462;52.148;7.940;2023-03-25T17:26:31;3.27;;;0.60;;
76582;SDS011;65462;52.148;7.940;2023-03-25T17:28:59;3.20;;;0.40;;
76582;SDS011;65462;52.148;7.940;2023-03-25T17:34:18;3.60;;;0.80;;
76582;SDS011;65462;52.148;7.940;2023-03-25T17:36:46;3.67;;;0.60;;
76582;SDS011;65462;52.148;7.940;2023-03-25T17:41:43;2.50;;;0.67;;
76582;SDS011;65462;52.148;7.940;2023-03-25T17:44:13;1.53;;;0.50;;
76582;SDS011;65462;52.148;7.940;2023-03-25T17:46:39;2.37;;;0.70;;
76582;SDS011;65462;52.148;7.940;2023-03-25T17:49:10;2.57;;;0.50;;
76582;SDS011;65462;52.148;7.940;2023-03-25T17:51:39;2.20;;;0.70;;
76582;SDS011;65462;52.148;7.940;2023-03-25T17:54:05;1.57;;;0.50;;
76582;SDS011;65462;52.148;7.940;2023-03-25T17:56:30;3.03;;;0.43;;